createdAt,value
2023-05-14T00:00:32.260Z,96136.34
2023-05-14T00:02:59.150Z,96141.13
2023-05-14T00:05:25.965Z,96134.47
2023-05-14T00:07:52.690Z,96124.84
2023-05-14T00:10:22.172Z,96126.16
2023-05-14T00:12:49.031Z,96120.91
2023-05-14T00:15:15.920Z,96119.97
2023-05-14T00:17:42.790Z,96121.09
2023-05-14T00:20:12.185Z,96111.75
2023-05-14T00:22:40.164Z,96109.25
2023-05-14T00:25:07.930Z,96107.66
2023-05-14T00:27:35.124Z,96104.34
2023-05-14T00:30:01.878Z,96098.75
2023-05-14T00:32:31.326Z,96099.47
2023-05-14T00:34:59.792Z,96104.50
2023-05-14T00:37:26.569Z,96102.66
2023-05-14T00:39:53.214Z,96099.09
2023-05-14T00:42:20.209Z,96093.38
2023-05-14T00:44:47.119Z,96095.47
2023-05-14T00:47:14.559Z,96098.69
2023-05-14T00:49:42.811Z,96098.69
2023-05-14T00:52:11.235Z,96095.47
2023-05-14T00:54:38.123Z,96085.19
2023-05-14T00:57:06.722Z,96089.28
2023-05-14T00:59:33.807Z,96084.97
2023-05-14T01:02:00.819Z,96087.09
2023-05-14T01:04:28.127Z,96082.97
2023-05-14T01:07:03.653Z,96076.22
2023-05-14T01:09:36.286Z,96074.16
2023-05-14T01:12:15.877Z,96068.91
2023-05-14T01:15:12.119Z,96077.13
2023-05-14T01:17:46.496Z,96072.63
2023-05-14T01:20:13.783Z,96074.75
2023-05-14T01:22:40.456Z,96073.81
2023-05-14T01:25:07.811Z,96071.63
2023-05-14T01:27:46.474Z,96069.31
2023-05-14T01:30:36.428Z,96070.13
2023-05-14T01:33:10.051Z,96068.91
2023-05-14T01:35:37.724Z,96070.13
2023-05-14T01:38:07.544Z,96072.81
2023-05-14T01:40:37.040Z,96066.94
2023-05-14T01:43:04.957Z,96068.22
2023-05-14T01:45:32.020Z,96070.84
2023-05-14T01:47:59.619Z,96069.44
2023-05-14T01:50:26.717Z,96065.59
2023-05-14T01:52:56.593Z,96065.81
2023-05-14T01:55:27.120Z,96065.34
2023-05-14T01:57:54.651Z,96064.75
2023-05-14T02:00:23.990Z,96061.63
2023-05-14T02:02:50.945Z,96063.31
2023-05-14T02:05:17.782Z,96057.91
2023-05-14T02:07:44.566Z,96057.66
2023-05-14T02:10:11.435Z,96055.16
2023-05-14T02:12:38.222Z,96053.56
2023-05-14T02:15:05.649Z,96059.75
2023-05-14T02:17:32.714Z,96059.75
2023-05-14T02:19:59.445Z,96051.53
2023-05-14T02:22:26.227Z,96061.34
2023-05-14T02:24:52.897Z,96057.59
2023-05-14T02:27:19.617Z,96050.31
2023-05-14T02:29:46.311Z,96051.59
2023-05-14T02:32:15.984Z,96043.84
2023-05-14T02:34:42.722Z,96046.25
2023-05-14T02:37:09.475Z,96046.03
2023-05-14T02:39:38.245Z,96049.22
2023-05-14T02:42:07.050Z,96039.66
2023-05-14T02:44:33.807Z,96036.44
2023-05-14T02:47:00.600Z,96039.28
2023-05-14T02:49:27.393Z,96024.44
2023-05-14T02:51:57.635Z,96033.53
2023-05-14T02:54:24.336Z,96031.59
2023-05-14T02:56:51.038Z,96033.53
2023-05-14T02:59:17.831Z,96034.81
2023-05-14T03:01:44.858Z,96030.91
2023-05-14T03:04:12.183Z,96027.81
2023-05-14T03:06:38.908Z,96019.59
2023-05-14T03:09:05.696Z,96029.41
2023-05-14T03:11:32.540Z,96014.22
2023-05-14T03:13:59.281Z,96028.03
2023-05-14T03:16:26.033Z,96020.06
2023-05-14T03:18:52.819Z,96025.19
2023-05-14T03:21:19.864Z,96026.25
2023-05-14T03:23:46.690Z,96010.00
2023-05-14T03:26:13.326Z,96012.03
2023-05-14T03:28:41.226Z,96007.25
2023-05-14T03:31:07.968Z,96015.50
2023-05-14T03:33:34.743Z,96011.94
2023-05-14T03:36:01.831Z,96013.66
2023-05-14T03:38:28.622Z,96015.81
2023-05-14T03:40:55.375Z,96018.22
2023-05-14T03:43:22.319Z,96019.56
2023-05-14T03:45:52.677Z,96018.88
2023-05-14T03:48:20.552Z,96019.56
2023-05-14T03:50:47.473Z,96022.78
2023-05-14T03:53:14.329Z,96022.41
2023-05-14T03:55:41.043Z,96026.41
2023-05-14T03:58:14.222Z,96017.47
2023-05-14T04:00:42.220Z,96019.97
2023-05-14T04:03:11.196Z,96026.72
2023-05-14T04:05:38.112Z,96029.59
2023-05-14T04:08:05.157Z,96025.16
2023-05-14T04:10:32.664Z,96024.81
2023-05-14T04:13:00.313Z,96023.75
2023-05-14T04:15:31.478Z,96016.41
2023-05-14T04:17:58.283Z,96020.19
2023-05-14T04:20:25.194Z,96008.78
2023-05-14T04:22:52.262Z,96009.78
2023-05-14T04:25:19.197Z,96007.56
2023-05-14T04:27:46.008Z,96015.03
2023-05-14T04:30:13.041Z,96008.16
2023-05-14T04:32:40.136Z,96003.28
2023-05-14T04:35:09.381Z,96009.19
2023-05-14T04:37:36.488Z,96007.13
2023-05-14T04:40:03.812Z,96016.03
2023-05-14T04:42:30.740Z,96018.25
2023-05-14T04:44:58.006Z,96022.78
2023-05-14T04:47:24.862Z,96021.19
2023-05-14T04:49:51.601Z,96015.09
2023-05-14T04:52:18.275Z,96016.78
2023-05-14T04:54:45.032Z,96018.16
2023-05-14T04:57:11.785Z,96025.34
2023-05-14T04:59:38.653Z,96017.22
2023-05-14T05:02:05.658Z,96021.97
2023-05-14T05:04:32.265Z,96021.44
2023-05-14T05:06:58.964Z,96028.25
2023-05-14T05:09:25.716Z,96032.59
2023-05-14T05:11:52.540Z,96025.66
2023-05-14T05:14:19.338Z,96033.66
2023-05-14T05:16:46.219Z,96022.88
2023-05-14T05:19:12.973Z,96028.06
2023-05-14T05:21:40.907Z,96032.44
2023-05-14T05:24:08.474Z,96032.59
2023-05-14T05:26:38.288Z,96025.00
2023-05-14T05:29:05.962Z,96020.66
2023-05-14T05:31:32.796Z,96015.59
2023-05-14T05:34:00.716Z,96013.31
2023-05-14T05:36:27.481Z,96007.78
2023-05-14T05:38:54.409Z,96015.13
2023-05-14T05:41:21.196Z,96014.88
2023-05-14T05:43:48.036Z,96013.38
2023-05-14T05:46:14.748Z,96018.34
2023-05-14T05:48:41.452Z,96018.25
2023-05-14T05:51:08.143Z,96021.19
2023-05-14T05:53:34.805Z,96017.03
2023-05-14T05:56:01.536Z,96023.63
2023-05-14T05:58:28.208Z,96017.41
2023-05-14T06:00:55.592Z,96013.38
2023-05-14T06:03:23.245Z,96020.59
2023-05-14T06:05:50.094Z,96020.22
2023-05-14T06:08:16.929Z,96020.31
2023-05-14T06:10:44.209Z,96019.09
2023-05-14T06:13:12.267Z,96019.34
2023-05-14T06:15:38.960Z,96015.25
2023-05-14T06:18:05.835Z,96008.47
2023-05-14T06:20:32.579Z,96019.03
2023-05-14T06:22:59.268Z,96014.75
2023-05-14T06:25:26.235Z,96009.50
2023-05-14T06:27:52.879Z,96016.75
2023-05-14T06:30:19.747Z,96017.59
2023-05-14T06:32:46.598Z,96019.19
2023-05-14T06:35:13.606Z,96013.91
2023-05-14T06:37:40.307Z,96009.56
2023-05-14T06:40:07.646Z,96000.50
2023-05-14T06:42:34.492Z,96002.50
2023-05-14T06:45:01.273Z,96003.81
2023-05-14T06:47:28.024Z,96008.63
2023-05-14T06:49:55.973Z,96008.03
2023-05-14T06:52:22.612Z,96011.81
2023-05-14T06:54:49.289Z,96017.69
2023-05-14T06:57:16.015Z,96020.56
2023-05-14T06:59:42.845Z,96015.94
2023-05-14T07:02:09.583Z,96011.03
2023-05-14T07:04:36.574Z,96006.34
2023-05-14T07:07:03.479Z,96007.28
2023-05-14T07:09:30.258Z,96003.41
2023-05-14T07:11:56.927Z,95987.41
2023-05-14T07:14:23.629Z,95993.34
2023-05-14T07:16:50.490Z,95995.78
2023-05-14T07:19:17.367Z,95986.28
2023-05-14T07:21:44.144Z,95991.81
2023-05-14T07:24:10.797Z,95978.59
2023-05-14T07:26:37.657Z,95976.47
2023-05-14T07:29:04.341Z,95977.56
2023-05-14T07:31:31.659Z,95975.63
2023-05-14T07:33:58.457Z,95984.00
2023-05-14T07:36:25.133Z,95981.00
2023-05-14T07:38:51.889Z,95970.91
2023-05-14T07:41:18.611Z,95970.34
2023-05-14T07:43:45.322Z,95961.84
2023-05-14T07:46:12.404Z,95961.84
2023-05-14T07:48:39.182Z,95968.28
2023-05-14T07:51:06.026Z,95966.34
2023-05-14T07:53:32.804Z,95959.91
2023-05-14T07:56:00.314Z,95968.00
2023-05-14T07:58:28.930Z,95970.53
2023-05-14T08:00:56.658Z,95973.66
2023-05-14T08:03:23.624Z,95965.06
2023-05-14T08:05:51.826Z,95975.50
2023-05-14T08:08:18.778Z,95970.72
2023-05-14T08:10:45.644Z,95966.56
2023-05-14T08:13:12.358Z,95965.19
2023-05-14T08:15:39.193Z,95958.34
2023-05-14T08:18:06.164Z,95958.47
2023-05-14T08:20:32.881Z,95960.91
2023-05-14T08:22:59.602Z,95955.34
2023-05-14T08:25:26.304Z,95953.47
2023-05-14T08:27:54.440Z,95955.81
2023-05-14T08:30:22.749Z,95946.41
2023-05-14T08:32:49.801Z,95937.78
2023-05-14T08:35:17.957Z,95932.97
2023-05-14T08:37:45.876Z,95932.13
2023-05-14T08:40:12.976Z,95945.72
2023-05-14T08:42:41.722Z,95938.44
2023-05-14T08:45:16.986Z,95925.94
2023-05-14T08:47:52.172Z,95939.47
2023-05-14T08:50:23.628Z,95931.22
2023-05-14T08:52:51.116Z,95932.25
2023-05-14T08:55:18.462Z,95929.78
2023-05-14T08:57:46.423Z,95941.50
2023-05-14T09:00:15.902Z,95934.03
2023-05-14T09:02:45.132Z,95927.06
2023-05-14T09:05:12.588Z,95933.06
2023-05-14T09:07:39.451Z,95929.59
2023-05-14T09:10:07.071Z,95935.47
2023-05-14T09:12:33.692Z,95931.44
2023-05-14T09:15:00.390Z,95926.88
2023-05-14T09:17:28.089Z,95932.31
2023-05-14T09:19:55.299Z,95924.13
2023-05-14T09:22:22.430Z,95926.69
2023-05-14T09:25:18.635Z,95911.69
2023-05-14T09:27:50.518Z,95909.50
2023-05-14T09:30:17.300Z,95916.16
2023-05-14T09:32:46.201Z,95911.94
2023-05-14T09:35:20.943Z,95918.50
2023-05-14T09:37:50.055Z,95903.22
2023-05-14T09:40:18.717Z,95903.22
2023-05-14T09:42:46.480Z,95912.19
2023-05-14T09:45:13.258Z,95908.59
2023-05-14T09:47:40.301Z,95906.28
2023-05-14T09:50:08.051Z,95908.63
2023-05-14T09:52:35.249Z,95908.78
2023-05-14T09:55:02.436Z,95913.41
2023-05-14T09:57:29.960Z,95905.13
2023-05-14T09:59:56.680Z,95909.03
2023-05-14T10:02:25.182Z,95892.81
2023-05-14T10:04:54.655Z,95890.22
2023-05-14T10:07:25.009Z,95888.69
2023-05-14T10:09:57.628Z,95889.66
2023-05-14T10:12:29.882Z,95887.34
2023-05-14T10:15:01.378Z,95892.56
2023-05-14T10:17:32.153Z,95894.09
2023-05-14T10:20:02.633Z,95885.16
2023-05-14T10:22:34.070Z,95884.19
2023-05-14T10:25:03.136Z,95882.38
2023-05-14T10:27:30.312Z,95872.41
2023-05-14T10:29:57.440Z,95871.59
2023-05-14T10:32:26.431Z,95865.09
2023-05-14T10:34:54.046Z,95872.88
2023-05-14T10:37:23.440Z,95871.97
2023-05-14T10:39:53.891Z,95874.88
2023-05-14T10:42:43.663Z,95864.63
2023-05-14T10:45:12.962Z,95867.19
2023-05-14T10:47:42.725Z,95869.38
2023-05-14T10:50:12.581Z,95857.91
2023-05-14T10:52:43.239Z,95859.75
2023-05-14T10:55:13.938Z,95858.88
2023-05-14T10:57:43.542Z,95854.81
2023-05-14T11:00:11.839Z,95870.69
2023-05-14T11:02:40.899Z,95866.94
2023-05-14T11:05:14.192Z,95856.03
2023-05-14T11:07:45.137Z,95855.50
2023-05-14T11:10:14.492Z,95850.78
2023-05-14T11:12:46.292Z,95852.41
2023-05-14T11:15:23.963Z,95853.16
2023-05-14T11:17:51.518Z,95858.69
2023-05-14T11:20:19.328Z,95846.97
2023-05-14T11:22:48.133Z,95850.41
2023-05-14T11:25:15.512Z,95849.50
2023-05-14T11:27:45.574Z,95843.50
2023-05-14T11:30:20.007Z,95846.75
2023-05-14T11:32:48.457Z,95857.09
2023-05-14T11:35:16.296Z,95849.84
2023-05-14T11:37:43.529Z,95843.59
2023-05-14T11:40:16.807Z,95835.88
2023-05-14T11:42:43.673Z,95844.13
2023-05-14T11:45:14.440Z,95846.00
2023-05-14T11:47:42.756Z,95849.03
2023-05-14T11:50:10.057Z,95850.97
2023-05-14T11:52:41.133Z,95846.78
2023-05-14T11:55:14.000Z,95840.59
2023-05-14T11:57:41.215Z,95851.41
2023-05-14T12:00:13.781Z,95836.22
2023-05-14T12:02:40.816Z,95833.75
2023-05-14T12:05:09.052Z,95825.19
2023-05-14T12:07:36.189Z,95829.19
2023-05-14T12:10:03.819Z,95832.53
2023-05-14T12:12:36.078Z,95824.13
2023-05-14T12:15:10.526Z,95838.72
2023-05-14T12:17:38.493Z,95846.41
2023-05-14T12:20:10.453Z,95842.00
2023-05-14T12:22:37.487Z,95829.84
2023-05-14T12:25:04.698Z,95835.72
2023-05-14T12:27:31.721Z,95827.09
2023-05-14T12:30:20.694Z,95824.41
2023-05-14T12:32:52.046Z,95820.09
2023-05-14T12:35:19.129Z,95817.81
2023-05-14T12:37:46.034Z,95819.91
2023-05-14T12:40:13.186Z,95818.69
2023-05-14T12:42:40.213Z,95817.06
2023-05-14T12:45:08.612Z,95814.59
2023-05-14T12:47:37.468Z,95807.81
2023-05-14T12:50:04.875Z,95809.69
2023-05-14T12:55:01.545Z,95817.72
2023-05-14T12:57:29.161Z,95803.66
2023-05-14T12:59:56.077Z,95806.53
2023-05-14T13:02:22.705Z,95805.06
2023-05-14T13:04:49.716Z,95807.81
2023-05-14T13:07:16.563Z,95808.72
2023-05-14T13:09:43.386Z,95816.94
2023-05-14T13:12:10.865Z,95801.47
2023-05-14T13:14:37.725Z,95803.22
2023-05-14T13:17:05.496Z,95793.03
2023-05-14T13:19:32.341Z,95793.66
2023-05-14T13:21:59.110Z,95800.28
2023-05-14T13:24:26.030Z,95793.22
2023-05-14T13:26:52.862Z,95792.84
2023-05-14T13:29:19.586Z,95803.09
2023-05-14T13:31:46.296Z,95795.75
2023-05-14T13:34:13.230Z,95785.44
2023-05-14T13:36:40.798Z,95780.66
2023-05-14T13:39:07.585Z,95786.94
2023-05-14T13:41:38.092Z,95785.34
2023-05-14T13:44:05.330Z,95786.28
2023-05-14T13:46:32.177Z,95789.47
2023-05-14T13:48:58.893Z,95777.59
2023-05-14T13:51:25.768Z,95775.34
2023-05-14T13:56:24.025Z,95775.22
2023-05-14T13:58:50.810Z,95791.03
2023-05-14T14:01:17.560Z,95783.03
2023-05-14T14:03:44.286Z,95782.69
2023-05-14T14:06:12.664Z,95766.47
2023-05-14T14:08:39.373Z,95768.94
2023-05-14T14:11:06.100Z,95775.16
2023-05-14T14:13:32.898Z,95773.56
2023-05-14T14:15:59.787Z,95769.53
2023-05-14T14:18:27.000Z,95770.97
2023-05-14T14:20:53.816Z,95776.75
2023-05-14T14:23:20.490Z,95772.00
2023-05-14T14:25:47.129Z,95763.75
2023-05-14T14:28:13.966Z,95761.72
2023-05-14T14:30:41.132Z,95766.50
2023-05-14T14:33:08.254Z,95759.78
2023-05-14T14:35:35.926Z,95755.16
2023-05-14T14:38:03.925Z,95758.84
2023-05-14T14:40:33.339Z,95757.44
2023-05-14T14:43:00.450Z,95757.81
2023-05-14T14:45:27.128Z,95753.94
2023-05-14T14:48:22.604Z,95751.03
2023-05-14T14:50:49.672Z,95744.69
2023-05-14T14:53:16.297Z,95741.69
2023-05-14T14:55:43.382Z,95742.78
2023-05-14T14:58:10.158Z,95742.50
2023-05-14T15:00:36.914Z,95747.16
2023-05-14T15:03:03.997Z,95748.81
2023-05-14T15:05:30.695Z,95741.66
2023-05-14T15:07:57.458Z,95742.13
2023-05-14T15:10:24.138Z,95744.97
2023-05-14T15:12:51.108Z,95735.28
2023-05-14T15:15:17.903Z,95739.63
2023-05-14T15:17:44.685Z,95743.84
2023-05-14T15:20:12.180Z,95744.16
2023-05-14T15:22:38.991Z,95730.88
2023-05-14T15:25:05.875Z,95739.75
2023-05-14T15:27:32.545Z,95743.84
2023-05-14T15:29:59.251Z,95746.84
2023-05-14T15:32:27.232Z,95735.59
2023-05-14T15:34:55.502Z,95737.47
2023-05-14T15:37:24.914Z,95731.59
2023-05-14T15:39:51.740Z,95727.34
2023-05-14T15:42:20.486Z,95723.50
2023-05-14T15:44:47.150Z,95730.44
2023-05-14T15:47:13.878Z,95727.34
2023-05-14T15:49:40.573Z,95721.69
2023-05-14T15:52:07.722Z,95722.72
2023-05-14T15:54:34.525Z,95727.59
2023-05-14T15:57:01.720Z,95722.41
2023-05-14T15:59:28.571Z,95712.38
2023-05-14T16:01:55.852Z,95716.38
2023-05-14T16:04:22.600Z,95720.25
2023-05-14T16:06:49.359Z,95723.56
2023-05-14T16:09:16.130Z,95709.53
2023-05-14T16:11:42.792Z,95705.56
2023-05-14T16:14:09.858Z,95711.00
2023-05-14T16:16:37.057Z,95705.56
2023-05-14T16:19:03.771Z,95705.50
2023-05-14T16:21:30.500Z,95707.81
2023-05-14T16:23:57.280Z,95705.22
2023-05-14T16:26:24.100Z,95714.09
2023-05-14T16:28:50.836Z,95711.16
2023-05-14T16:31:17.558Z,95708.13
2023-05-14T16:33:44.245Z,95703.91
2023-05-14T16:36:11.297Z,95709.25
2023-05-14T16:38:44.585Z,95702.91
2023-05-14T16:41:19.544Z,95696.69
2023-05-14T16:43:46.212Z,95689.69
2023-05-14T16:46:13.095Z,95692.44
2023-05-14T16:48:40.014Z,95690.31
2023-05-14T16:51:06.718Z,95693.59
2023-05-14T16:53:33.350Z,95679.06
2023-05-14T16:56:00.098Z,95695.53
2023-05-14T16:58:26.882Z,95688.09
2023-05-14T17:00:53.518Z,95685.00
2023-05-14T17:03:20.566Z,95685.84
2023-05-14T17:05:47.627Z,95683.34
2023-05-14T17:08:18.027Z,95675.47
2023-05-14T17:10:44.880Z,95680.22
2023-05-14T17:13:11.747Z,95681.69
2023-05-14T17:15:40.364Z,95676.19
2023-05-14T17:18:12.307Z,95682.41
2023-05-14T17:20:42.037Z,95682.41
2023-05-14T17:23:08.841Z,95672.16
2023-05-14T17:25:35.669Z,95674.47
2023-05-14T17:28:02.477Z,95667.50
2023-05-14T17:30:29.277Z,95674.47
2023-05-14T17:32:56.390Z,95663.97
2023-05-14T17:35:23.499Z,95666.34
2023-05-14T17:37:50.391Z,95673.00
2023-05-14T17:40:17.233Z,95662.03
2023-05-14T17:42:46.281Z,95662.81
2023-05-14T17:45:14.709Z,95652.69
2023-05-14T17:47:49.470Z,95658.53
2023-05-14T17:50:16.602Z,95656.53
2023-05-14T17:52:48.066Z,95658.53
2023-05-14T17:55:17.513Z,95653.06
2023-05-14T17:57:44.657Z,95645.84
2023-05-14T18:00:13.874Z,95659.00
2023-05-14T18:02:41.735Z,95663.66
2023-05-14T18:05:09.181Z,95655.06
2023-05-14T18:07:39.213Z,95650.19
2023-05-14T18:10:06.711Z,95647.94
2023-05-14T18:12:33.441Z,95653.50
2023-05-14T18:15:00.317Z,95657.44
2023-05-14T18:17:27.170Z,95652.75
2023-05-14T18:19:54.047Z,95646.53
2023-05-14T18:22:21.733Z,95655.94
2023-05-14T18:24:48.882Z,95648.00
2023-05-14T18:27:16.428Z,95642.34
2023-05-14T18:29:43.765Z,95650.66
2023-05-14T18:32:11.171Z,95651.75
2023-05-14T18:34:38.032Z,95645.72
2023-05-14T18:37:05.535Z,95656.81
2023-05-14T18:39:34.983Z,95650.47
2023-05-14T18:42:02.483Z,95650.03
2023-05-14T18:44:29.696Z,95645.63
2023-05-14T18:46:56.767Z,95639.66
2023-05-14T18:49:23.756Z,95656.78
2023-05-14T18:51:51.796Z,95646.84
2023-05-14T18:54:18.772Z,95657.72
2023-05-14T18:56:52.142Z,95661.03
2023-05-14T18:59:19.212Z,95667.59
2023-05-14T19:01:46.586Z,95662.09
2023-05-14T19:04:16.804Z,95660.53
2023-05-14T19:06:43.819Z,95669.03
2023-05-14T19:09:11.017Z,95668.34
2023-05-14T19:11:38.093Z,95654.59
2023-05-14T19:14:05.335Z,95668.34
2023-05-14T19:16:33.283Z,95669.59
2023-05-14T19:19:00.411Z,95666.84
2023-05-14T19:21:30.557Z,95672.44
2023-05-14T19:23:58.204Z,95667.72
2023-05-14T19:26:25.423Z,95663.31
2023-05-14T19:28:58.001Z,95670.44
2023-05-14T19:31:28.412Z,95665.31
2023-05-14T19:33:55.279Z,95669.69
2023-05-14T19:36:22.692Z,95668.50
2023-05-14T19:38:51.863Z,95660.63
2023-05-14T19:41:24.868Z,95663.81
2023-05-14T19:43:53.982Z,95661.78
2023-05-14T19:46:21.042Z,95665.31
2023-05-14T19:48:48.836Z,95662.22
2023-05-14T19:51:18.742Z,95666.94
2023-05-14T19:53:46.138Z,95659.91
2023-05-14T19:56:13.291Z,95655.94
2023-05-14T19:58:40.929Z,95653.53
2023-05-14T20:01:12.229Z,95659.09
2023-05-14T20:03:39.706Z,95656.78
2023-05-14T20:06:07.444Z,95659.97
2023-05-14T20:08:36.736Z,95653.31
2023-05-14T20:11:03.786Z,95654.91
2023-05-14T20:13:35.603Z,95649.72
2023-05-14T20:16:06.048Z,95654.84
2023-05-14T20:18:33.457Z,95648.19
2023-05-14T20:21:00.927Z,95643.34
2023-05-14T20:23:30.764Z,95645.81
2023-05-14T20:25:58.261Z,95645.81
2023-05-14T20:28:25.289Z,95645.00
2023-05-14T20:30:52.294Z,95638.00
2023-05-14T20:33:19.213Z,95639.50
2023-05-14T20:35:46.516Z,95637.94
2023-05-14T20:38:13.463Z,95632.81
2023-05-14T20:40:40.556Z,95633.16
2023-05-14T20:43:07.343Z,95638.66
2023-05-14T20:45:34.100Z,95633.59
2023-05-14T20:48:01.261Z,95637.84
2023-05-14T20:50:28.433Z,95633.59
2023-05-14T20:52:56.034Z,95630.88
2023-05-14T20:55:24.114Z,95626.59
2023-05-14T20:57:51.489Z,95618.34
2023-05-14T21:00:20.560Z,95619.91
2023-05-14T21:02:49.342Z,95615.59
2023-05-14T21:05:17.288Z,95611.28
2023-05-14T21:07:44.087Z,95615.22
2023-05-14T21:10:11.069Z,95612.03
2023-05-14T21:12:37.903Z,95619.06
2023-05-14T21:15:05.041Z,95613.50
2023-05-14T21:17:31.814Z,95617.06
2023-05-14T21:19:58.578Z,95603.31
2023-05-14T21:22:25.492Z,95611.19
2023-05-14T21:24:52.228Z,95616.69
2023-05-14T21:27:19.218Z,95612.34
2023-05-14T21:29:46.720Z,95614.31
2023-05-14T21:32:13.682Z,95606.50
2023-05-14T21:34:40.661Z,95610.03
2023-05-14T21:37:07.481Z,95608.09
2023-05-14T21:39:34.349Z,95602.59
2023-05-14T21:42:01.053Z,95604.97
2023-05-14T21:44:27.836Z,95608.09
2023-05-14T21:46:54.687Z,95609.66
2023-05-14T21:49:21.311Z,95605.34
2023-05-14T21:51:52.916Z,95606.91
2023-05-14T21:54:19.937Z,95607.34
2023-05-14T21:56:47.138Z,95602.22
2023-05-14T21:59:13.834Z,95599.56
2023-05-14T22:02:00.770Z,95601.88
2023-05-14T22:04:27.191Z,95597.53
2023-05-14T22:06:53.908Z,95598.69
2023-05-14T22:09:20.921Z,95588.50
2023-05-14T22:11:47.624Z,95595.53
2023-05-14T22:14:14.395Z,95591.31
2023-05-14T22:16:41.251Z,95590.88
2023-05-14T22:19:08.130Z,95585.38
2023-05-14T22:21:34.873Z,95590.06
2023-05-14T22:24:01.513Z,95582.63
2023-05-14T22:26:28.333Z,95592.72
2023-05-14T22:28:56.934Z,95588.06
2023-05-14T22:31:23.888Z,95592.34
2023-05-14T22:33:50.694Z,95588.78
2023-05-14T22:36:17.430Z,95590.38
2023-05-14T22:38:44.046Z,95588.44
2023-05-14T22:41:12.338Z,95577.44
2023-05-14T22:43:39.327Z,95582.50
2023-05-14T22:46:06.311Z,95584.41
2023-05-14T22:48:33.136Z,95582.81
2023-05-14T22:50:59.905Z,95578.91
2023-05-14T22:53:26.741Z,95575.00
2023-05-14T22:55:53.619Z,95578.09
2023-05-14T22:58:20.409Z,95581.22
2023-05-14T23:00:47.059Z,95568.28
2023-05-14T23:03:13.757Z,95573.41
2023-05-14T23:05:40.498Z,95578.19
2023-05-14T23:08:07.284Z,95571.47
2023-05-14T23:10:35.489Z,95570.25
2023-05-14T23:13:04.257Z,95572.88
2023-05-14T23:15:31.226Z,95565.44
2023-05-14T23:17:58.290Z,95567.00
2023-05-14T23:20:25.344Z,95562.31
2023-05-14T23:22:52.456Z,95561.16
2023-05-14T23:25:19.212Z,95558.34
2023-05-14T23:27:46.092Z,95559.16
2023-05-14T23:30:13.054Z,95556.75
2023-05-14T23:32:39.764Z,95546.59
2023-05-14T23:35:06.793Z,95548.09
2023-05-14T23:37:33.800Z,95553.59
2023-05-14T23:40:01.778Z,95545.78
2023-05-14T23:42:28.640Z,95549.94
2023-05-14T23:44:55.329Z,95540.88
2023-05-14T23:47:22.117Z,95543.25
2023-05-14T23:49:48.856Z,95548.47
2023-05-14T23:52:15.840Z,95544.13
2023-05-14T23:54:42.485Z,95539.00
2023-05-14T23:57:13.031Z,95536.63
2023-05-14T23:59:41.149Z,95531.56
